Maris — 5BVJ4 — position and weather

sailwx.info

Track history (hours):
 
Tides and Currents Weather Stations Pressure Air Temp Water Temp Dewpoint Dewpoint Depression Visibility Wind Speed Wind Dir Waves Ship Positions

Maris

Last reported at 2018-Aug-13 15:25 UTC. Time now 2018-Aug-21 03:58 UTC.
Position N 35°51' E 014°53'.

Length 101 m; draft 6 m.

Type: Ship (hazmat cat A). MMSI: 212833000.

Date/timePositionNaut miles runAvg speedWind from/ knotsBaromVisibWave heightAir tempDewpointWater temp
2018-Aug-13 15:25N 35°51' E 014°53'0 0.0
2018-Aug-13 14:16N 35°51' E 014°53'0 0.0
2018-Aug-13 13:58N 35°51' E 014°53'0 0.0
2018-Aug-13 13:28N 35°51' E 014°53'0 0.0
2018-Aug-13 09:43N 35°51' E 014°53'0 0.0
2018-Aug-13 09:28N 35°51' E 014°53'0 0.0
2018-Aug-13 08:43N 35°51' E 014°53'0 0.0
2018-Aug-13 08:28N 35°52' E 014°53'0 0.0
2018-Aug-13 07:58N 35°51' E 014°53'0 0.1
2018-Aug-13 07:16N 35°51' E 014°53'0 0.0
2018-Aug-13 06:58N 35°51' E 014°53'0 0.0
2018-Aug-13 04:58N 35°51' E 014°53'0 0.0
2018-Aug-13 03:40N 35°51' E 014°53'0 0.0
2018-Aug-13 03:28N 35°51' E 014°53'0 0.0
2018-Aug-13 02:58N 35°51' E 014°53'0 0.0
2018-Aug-13 02:28N 35°51' E 014°53'0 0.0
2018-Aug-12 22:36N 35°51' E 014°53'0 0.0
2018-Aug-12 22:28N 35°51' E 014°53'0 0.0
2018-Aug-12 21:48N 35°51' E 014°53'0 0.0
2018-Aug-12 17:24N 35°52' E 014°53'16 0.5
2018-Aug-11 10:59N 35°49' E 014°33'0 0.0
2018-Aug-11 10:30N 35°49' E 014°33'0 0.0
2018-Aug-11 10:00N 35°49' E 014°33'0 0.0
2018-Aug-11 09:16N 35°49' E 014°33'0 0.0
2018-Aug-11 08:41N 35°49' E 014°33'0 0.0
2018-Aug-11 08:28N 35°49' E 014°33'0 0.0
2018-Aug-11 08:00N 35°49' E 014°33'1 2.9
2018-Aug-11 07:30N 35°48' E 014°34'3 6.1
2018-Aug-11 07:00N 35°48' E 014°38'612.4
2018-Aug-11 06:30N 35°51' E 014°45'510.7
2018-Aug-11 06:00N 35°55' E 014°49'2 4.1
2018-Aug-11 05:29N 35°57' E 014°50'0 0.2
2018-Aug-11 04:56N 35°57' E 014°50'0 0.0
2018-Aug-11 04:14N 35°57' E 014°50'0 0.0
2018-Aug-11 03:59N 35°57' E 014°50'0 0.0
2018-Aug-11 03:23N 35°57' E 014°50'0 0.0
2018-Aug-11 02:53N 35°57' E 014°50'0 0.0
2018-Aug-11 02:29N 35°57' E 014°50'0 0.0
2018-Aug-11 01:59N 35°57' E 014°50'0 0.0
2018-Aug-11 01:29N 35°57' E 014°50'0 0.0
2018-Aug-11 00:59N 35°57' E 014°50'0 0.0
2018-Aug-11 00:26N 35°57' E 014°50'0 0.0
2018-Aug-10 23:56N 35°57' E 014°50'0 0.0
2018-Aug-10 20:32N 35°57' E 014°50'0 0.0
2018-Aug-10 20:08N 35°57' E 014°50'0 0.0
2018-Aug-10 19:59N 35°57' E 014°50'0 0.0
2018-Aug-10 19:26N 35°57' E 014°50'0 0.1
2018-Aug-10 18:57N 35°57' E 014°50'4 8.1
2018-Aug-10 18:28N 35°59' E 014°45'612.3
2018-Aug-10 18:00N 36°02' E 014°39'712.2
2018-Aug-10 17:27N 36°05' E 014°32'812.4
2018-Aug-10 16:49N 36°08' E 014°23'612.6
2018-Aug-10 16:20N 36°11' E 014°16'413.1
2018-Aug-10 16:00N 36°13' E 014°11'612.8
2018-Aug-10 15:30N 36°15' E 014°04'713.0
2018-Aug-10 15:00N 36°18' E 013°57'713.2
2018-Aug-10 14:30N 36°21' E 013°49'713.5
2018-Aug-10 14:00N 36°24' E 013°42'713.4
2018-Aug-10 13:30N 36°27' E 013°34'713.6
2018-Aug-10 13:01N 36°30' E 013°27'713.8
2018-Aug-10 12:30N 36°32' E 013°19'612.9
2018-Aug-10 12:00N 36°35' E 013°11'713.2
2018-Aug-10 11:30N 36°38' E 013°04'712.5
2018-Aug-10 10:58N 36°41' E 012°56'612.6
2018-Aug-10 10:30N 36°43' E 012°50'912.6
2018-Aug-10 09:49N 36°47' E 012°40'412.6
2018-Aug-10 09:31N 36°48' E 012°36'612.4
2018-Aug-10 09:00N 36°51' E 012°28'53811.7
2018-Aug-08 11:05N 41°10' E 002°22'214.3
2018-Aug-08 10:58N 41°11' E 002°20'612.0
2018-Aug-08 10:30N 41°15' E 002°15'510.9
2018-Aug-08 10:00N 41°19' E 002°10'2 4.0
2018-Aug-08 09:30N 41°21' E 002°10'0 0.0
2018-Aug-08 09:00N 41°21' E 002°10'0 0.0
2018-Aug-08 08:30N 41°21' E 002°10'0 0.0
2018-Aug-08 08:00N 41°21' E 002°10'0 0.0
2018-Aug-08 07:30N 41°21' E 002°10'0 0.0
2018-Aug-08 07:00N 41°21' E 002°10'0 0.5
2018-Aug-08 06:30N 41°21' E 002°10'2 3.3
2018-Aug-08 06:00N 41°19' E 002°10'1 1.5
2018-Aug-08 05:26N 41°20' E 002°11'0 0.1
2018-Aug-08 04:59N 41°20' E 002°11'0 0.0
2018-Aug-08 04:29N 41°20' E 002°11'0 0.0
2018-Aug-08 03:49N 41°20' E 002°11'0 0.0
2018-Aug-08 03:28N 41°20' E 002°11'0 0.0
2018-Aug-08 02:58N 41°20' E 002°11'0 0.0
2018-Aug-08 02:25N 41°20' E 002°11'0 0.0
2018-Aug-08 01:58N 41°20' E 002°11'0 0.0
2018-Aug-08 01:28N 41°20' E 002°11'0 0.0
2018-Aug-08 00:55N 41°20' E 002°11'0 0.0
2018-Aug-08 00:28N 41°20' E 002°11'0 0.0
2018-Aug-07 23:58N 41°20' E 002°11'0 0.0
2018-Aug-07 23:25N 41°20' E 002°11'0 0.0
2018-Aug-07 22:58N 41°20' E 002°11'0 0.1
2018-Aug-07 22:28N 41°20' E 002°11'0 0.0
2018-Aug-07 21:55N 41°20' E 002°11'0 0.0
2018-Aug-07 21:28N 41°20' E 002°11'0 0.1
2018-Aug-07 20:58N 41°20' E 002°11'0 0.0
2018-Aug-07 20:28N 41°20' E 002°11'0 0.0
2018-Aug-07 19:55N 41°20' E 002°11'0 0.0
2018-Aug-07 19:28N 41°20' E 002°11'0 0.0
2018-Aug-07 18:58N 41°20' E 002°11'0 0.0
2018-Aug-07 18:25N 41°20' E 002°11'0 0.1
2018-Aug-07 17:55N 41°20' E 002°11'0 0.1
2018-Aug-07 17:30N 41°20' E 002°11'1 2.1
2018-Aug-07 17:00N 41°21' E 002°10'0 0.4
2018-Aug-07 16:28N 41°21' E 002°10'0 0.0
2018-Aug-07 15:58N 41°21' E 002°10'0 0.0
2018-Aug-07 15:28N 41°21' E 002°10'0 0.0
2018-Aug-07 14:58N 41°21' E 002°10'0 0.0
2018-Aug-07 14:28N 41°21' E 002°10'0 0.0
2018-Aug-07 13:58N 41°21' E 002°10'0 0.0
2018-Aug-07 13:25N 41°21' E 002°10'0 0.0
2018-Aug-07 12:58N 41°21' E 002°10'0 0.5
2018-Aug-07 12:31N 41°21' E 002°10'0 0.7
2018-Aug-07 11:58N 41°21' E 002°10'0 0.0
2018-Aug-07 11:28N 41°21' E 002°10'0 0.0
2018-Aug-07 10:58N 41°21' E 002°10'0 0.0
2018-Aug-07 10:28N 41°21' E 002°10'0 0.0
2018-Aug-07 09:58N 41°21' E 002°10'0 0.0
2018-Aug-07 09:28N 41°21' E 002°10'0 0.0
2018-Aug-07 08:58N 41°21' E 002°10'0 0.0
2018-Aug-07 08:30N 41°21' E 002°10'0 0.0
2018-Aug-07 08:00N 41°21' E 002°10'0 0.0
2018-Aug-07 07:27N 41°21' E 002°10'0 0.8
2018-Aug-07 07:00N 41°21' E 002°10'4 7.0
2018-Aug-07 06:30N 41°18' E 002°11'510.8
2018-Aug-07 06:00N 41°13' E 002°06'713.2
2018-Aug-07 05:30N 41°09' E 001°59'612.4
2018-Aug-07 04:59N 41°05' E 001°53'613.7
2018-Aug-07 04:30N 41°01' E 001°46'101 2.7
2018-Aug-05 15:25N 39°58' E 000°03'86 2.8
2018-Aug-04 09:14N 38°33' E 000°20'313.7
2018-Aug-04 09:00N 38°30' E 000°18'713.5
2018-Aug-04 08:30N 38°25' E 000°13'713.5
2018-Aug-04 08:00N 38°19' E 000°08'913.8
2018-Aug-04 07:20N 38°11' E 000°02'413.8
2018-Aug-04 07:00N 38°08' W 000°02'713.6
2018-Aug-04 06:30N 38°02' W 000°07'713.5
2018-Aug-04 05:58N 37°56' W 000°12'613.3
2018-Aug-04 05:30N 37°51' W 000°16'713.6
2018-Aug-04 05:00N 37°45' W 000°21'713.5
2018-Aug-04 04:30N 37°39' W 000°26'713.5
2018-Aug-04 04:00N 37°34' W 000°30'713.5
2018-Aug-04 03:30N 37°29' W 000°37'713.3
2018-Aug-04 03:00N 37°25' W 000°43'5213.2
2018-Aug-03 23:05N 36°50' W 001°32'112.4
2018-Aug-03 23:00N 36°50' W 001°33'613.0
2018-Aug-03 22:30N 36°45' W 001°39'  
Track history (hours):
 
Tides and Currents Weather Stations Pressure Air Temp Water Temp Dewpoint Dewpoint Depression Visibility Wind Speed Wind Dir Waves Ship Positions

Maris

Last reported at 2018-Aug-13 15:25 UTC. Time now 2018-Aug-21 03:58 UTC.
Position N 35°51' E 014°53'.

Length 101 m; draft 6 m.

Type: Ship (hazmat cat A). MMSI: 212833000.

Date/timePositionNaut miles runAvg speedWind from/ knotsBaromVisibWave heightAir tempDewpointWater temp
2018-Aug-13 15:25N 35°51' E 014°53'0 0.0
2018-Aug-13 14:16N 35°51' E 014°53'0 0.0
2018-Aug-13 13:58N 35°51' E 014°53'0 0.0
2018-Aug-13 13:28N 35°51' E 014°53'0 0.0
2018-Aug-13 09:43N 35°51' E 014°53'0 0.0
2018-Aug-13 09:28N 35°51' E 014°53'0 0.0
2018-Aug-13 08:43N 35°51' E 014°53'0 0.0
2018-Aug-13 08:28N 35°52' E 014°53'0 0.0
2018-Aug-13 07:58N 35°51' E 014°53'0 0.1
2018-Aug-13 07:16N 35°51' E 014°53'0 0.0
2018-Aug-13 06:58N 35°51' E 014°53'0 0.0
2018-Aug-13 04:58N 35°51' E 014°53'0 0.0
2018-Aug-13 03:40N 35°51' E 014°53'0 0.0
2018-Aug-13 03:28N 35°51' E 014°53'0 0.0
2018-Aug-13 02:58N 35°51' E 014°53'0 0.0
2018-Aug-13 02:28N 35°51' E 014°53'0 0.0
2018-Aug-12 22:36N 35°51' E 014°53'0 0.0
2018-Aug-12 22:28N 35°51' E 014°53'0 0.0
2018-Aug-12 21:48N 35°51' E 014°53'0 0.0
2018-Aug-12 17:24N 35°52' E 014°53'16 0.5
2018-Aug-11 10:59N 35°49' E 014°33'0 0.0
2018-Aug-11 10:30N 35°49' E 014°33'0 0.0
2018-Aug-11 10:00N 35°49' E 014°33'0 0.0
2018-Aug-11 09:16N 35°49' E 014°33'0 0.0
2018-Aug-11 08:41N 35°49' E 014°33'0 0.0
2018-Aug-11 08:28N 35°49' E 014°33'0 0.0
2018-Aug-11 08:00N 35°49' E 014°33'1 2.9
2018-Aug-11 07:30N 35°48' E 014°34'3 6.1
2018-Aug-11 07:00N 35°48' E 014°38'612.4
2018-Aug-11 06:30N 35°51' E 014°45'510.7
2018-Aug-11 06:00N 35°55' E 014°49'2 4.1
2018-Aug-11 05:29N 35°57' E 014°50'0 0.2
2018-Aug-11 04:56N 35°57' E 014°50'0 0.0
2018-Aug-11 04:14N 35°57' E 014°50'0 0.0
2018-Aug-11 03:59N 35°57' E 014°50'0 0.0
2018-Aug-11 03:23N 35°57' E 014°50'0 0.0
2018-Aug-11 02:53N 35°57' E 014°50'0 0.0
2018-Aug-11 02:29N 35°57' E 014°50'0 0.0
2018-Aug-11 01:59N 35°57' E 014°50'0 0.0
2018-Aug-11 01:29N 35°57' E 014°50'0 0.0
2018-Aug-11 00:59N 35°57' E 014°50'0 0.0
2018-Aug-11 00:26N 35°57' E 014°50'0 0.0
2018-Aug-10 23:56N 35°57' E 014°50'0 0.0
2018-Aug-10 20:32N 35°57' E 014°50'0 0.0
2018-Aug-10 20:08N 35°57' E 014°50'0 0.0
2018-Aug-10 19:59N 35°57' E 014°50'0 0.0
2018-Aug-10 19:26N 35°57' E 014°50'0 0.1
2018-Aug-10 18:57N 35°57' E 014°50'4 8.1
2018-Aug-10 18:28N 35°59' E 014°45'612.3
2018-Aug-10 18:00N 36°02' E 014°39'712.2
2018-Aug-10 17:27N 36°05' E 014°32'812.4
2018-Aug-10 16:49N 36°08' E 014°23'612.6
2018-Aug-10 16:20N 36°11' E 014°16'413.1
2018-Aug-10 16:00N 36°13' E 014°11'612.8
2018-Aug-10 15:30N 36°15' E 014°04'713.0
2018-Aug-10 15:00N 36°18' E 013°57'713.2
2018-Aug-10 14:30N 36°21' E 013°49'713.5
2018-Aug-10 14:00N 36°24' E 013°42'713.4
2018-Aug-10 13:30N 36°27' E 013°34'713.6
2018-Aug-10 13:01N 36°30' E 013°27'713.8
2018-Aug-10 12:30N 36°32' E 013°19'612.9
2018-Aug-10 12:00N 36°35' E 013°11'713.2
2018-Aug-10 11:30N 36°38' E 013°04'712.5
2018-Aug-10 10:58N 36°41' E 012°56'612.6
2018-Aug-10 10:30N 36°43' E 012°50'912.6
2018-Aug-10 09:49N 36°47' E 012°40'412.6
2018-Aug-10 09:31N 36°48' E 012°36'612.4
2018-Aug-10 09:00N 36°51' E 012°28'53811.7
2018-Aug-08 11:05N 41°10' E 002°22'214.3
2018-Aug-08 10:58N 41°11' E 002°20'612.0
2018-Aug-08 10:30N 41°15' E 002°15'510.9
2018-Aug-08 10:00N 41°19' E 002°10'2 4.0
2018-Aug-08 09:30N 41°21' E 002°10'0 0.0
2018-Aug-08 09:00N 41°21' E 002°10'0 0.0
2018-Aug-08 08:30N 41°21' E 002°10'0 0.0
2018-Aug-08 08:00N 41°21' E 002°10'0 0.0
2018-Aug-08 07:30N 41°21' E 002°10'0 0.0
2018-Aug-08 07:00N 41°21' E 002°10'0 0.5
2018-Aug-08 06:30N 41°21' E 002°10'2 3.3
2018-Aug-08 06:00N 41°19' E 002°10'1 1.5
2018-Aug-08 05:26N 41°20' E 002°11'0 0.1
2018-Aug-08 04:59N 41°20' E 002°11'0 0.0
2018-Aug-08 04:29N 41°20' E 002°11'0 0.0
2018-Aug-08 03:49N 41°20' E 002°11'0 0.0
2018-Aug-08 03:28N 41°20' E 002°11'0 0.0
2018-Aug-08 02:58N 41°20' E 002°11'0 0.0
2018-Aug-08 02:25N 41°20' E 002°11'0 0.0
2018-Aug-08 01:58N 41°20' E 002°11'0 0.0
2018-Aug-08 01:28N 41°20' E 002°11'0 0.0
2018-Aug-08 00:55N 41°20' E 002°11'0 0.0
2018-Aug-08 00:28N 41°20' E 002°11'0 0.0
2018-Aug-07 23:58N 41°20' E 002°11'0 0.0
2018-Aug-07 23:25N 41°20' E 002°11'0 0.0
2018-Aug-07 22:58N 41°20' E 002°11'0 0.1
2018-Aug-07 22:28N 41°20' E 002°11'0 0.0
2018-Aug-07 21:55N 41°20' E 002°11'0 0.0
2018-Aug-07 21:28N 41°20' E 002°11'0 0.1
2018-Aug-07 20:58N 41°20' E 002°11'0 0.0
2018-Aug-07 20:28N 41°20' E 002°11'0 0.0
2018-Aug-07 19:55N 41°20' E 002°11'0 0.0
2018-Aug-07 19:28N 41°20' E 002°11'0 0.0
2018-Aug-07 18:58N 41°20' E 002°11'0 0.0
2018-Aug-07 18:25N 41°20' E 002°11'0 0.1
2018-Aug-07 17:55N 41°20' E 002°11'0 0.1
2018-Aug-07 17:30N 41°20' E 002°11'1 2.1
2018-Aug-07 17:00N 41°21' E 002°10'0 0.4
2018-Aug-07 16:28N 41°21' E 002°10'0 0.0
2018-Aug-07 15:58N 41°21' E 002°10'0 0.0
2018-Aug-07 15:28N 41°21' E 002°10'0 0.0
2018-Aug-07 14:58N 41°21' E 002°10'0 0.0
2018-Aug-07 14:28N 41°21' E 002°10'0 0.0
2018-Aug-07 13:58N 41°21' E 002°10'0 0.0
2018-Aug-07 13:25N 41°21' E 002°10'0 0.0
2018-Aug-07 12:58N 41°21' E 002°10'0 0.5
2018-Aug-07 12:31N 41°21' E 002°10'0 0.7
2018-Aug-07 11:58N 41°21' E 002°10'0 0.0
2018-Aug-07 11:28N 41°21' E 002°10'0 0.0
2018-Aug-07 10:58N 41°21' E 002°10'0 0.0
2018-Aug-07 10:28N 41°21' E 002°10'0 0.0
2018-Aug-07 09:58N 41°21' E 002°10'0 0.0
2018-Aug-07 09:28N 41°21' E 002°10'0 0.0
2018-Aug-07 08:58N 41°21' E 002°10'0 0.0
2018-Aug-07 08:30N 41°21' E 002°10'0 0.0
2018-Aug-07 08:00N 41°21' E 002°10'0 0.0
2018-Aug-07 07:27N 41°21' E 002°10'0 0.8
2018-Aug-07 07:00N 41°21' E 002°10'4 7.0
2018-Aug-07 06:30N 41°18' E 002°11'510.8
2018-Aug-07 06:00N 41°13' E 002°06'713.2
2018-Aug-07 05:30N 41°09' E 001°59'612.4
2018-Aug-07 04:59N 41°05' E 001°53'613.7
2018-Aug-07 04:30N 41°01' E 001°46'101 2.7
2018-Aug-05 15:25N 39°58' E 000°03'86 2.8
2018-Aug-04 09:14N 38°33' E 000°20'313.7
2018-Aug-04 09:00N 38°30' E 000°18'713.5
2018-Aug-04 08:30N 38°25' E 000°13'713.5
2018-Aug-04 08:00N 38°19' E 000°08'913.8
2018-Aug-04 07:20N 38°11' E 000°02'413.8
2018-Aug-04 07:00N 38°08' W 000°02'713.6
2018-Aug-04 06:30N 38°02' W 000°07'713.5
2018-Aug-04 05:58N 37°56' W 000°12'613.3
2018-Aug-04 05:30N 37°51' W 000°16'713.6
2018-Aug-04 05:00N 37°45' W 000°21'713.5
2018-Aug-04 04:30N 37°39' W 000°26'713.5
2018-Aug-04 04:00N 37°34' W 000°30'713.5
2018-Aug-04 03:30N 37°29' W 000°37'713.3
2018-Aug-04 03:00N 37°25' W 000°43'5213.2
2018-Aug-03 23:05N 36°50' W 001°32'112.4
2018-Aug-03 23:00N 36°50' W 001°33'613.0
2018-Aug-03 22:30N 36°45' W 001°39'  

Dump ship's entire track history